createdAt,value
2019-01-30T00:00:20.524Z,914.8
2019-01-30T00:01:20.446Z,915
2019-01-30T00:02:20.156Z,914.9
2019-01-30T00:03:19.912Z,914.9
2019-01-30T00:04:19.807Z,914.8
2019-01-30T00:05:20.261Z,914.8
2019-01-30T00:06:20.399Z,914.7
2019-01-30T00:07:20.283Z,914.7
2019-01-30T00:08:20.177Z,914.8
2019-01-30T00:09:20.053Z,914.7
2019-01-30T00:10:19.928Z,914.7
2019-01-30T00:11:19.809Z,914.7
2019-01-30T00:12:19.712Z,914.6
2019-01-30T00:13:19.609Z,914.5
2019-01-30T00:14:19.519Z,912.9
2019-01-30T00:15:19.878Z,914.6
2019-01-30T00:16:19.787Z,914.5
2019-01-30T00:17:19.708Z,914.6
2019-01-30T00:18:19.593Z,914.5
2019-01-30T00:19:19.522Z,914.4
2019-01-30T00:20:19.422Z,913.9
2019-01-30T00:21:19.325Z,914.4
2019-01-30T00:22:19.233Z,914.4
2019-01-30T00:23:19.130Z,914.3
2019-01-30T00:24:19.017Z,914.4
2019-01-30T00:25:19.349Z,914.3
2019-01-30T00:26:19.241Z,914.4
2019-01-30T00:27:19.141Z,914.3
2019-01-30T00:28:19.047Z,914.3
2019-01-30T00:29:18.965Z,914.2
2019-01-30T00:30:18.877Z,914.2
2019-01-30T00:31:18.607Z,914.1
2019-01-30T00:32:18.332Z,914.2
2019-01-30T00:33:18.216Z,913
2019-01-30T00:34:18.209Z,914.1
2019-01-30T00:35:18.565Z,914.2
2019-01-30T00:36:18.469Z,914.2
2019-01-30T00:37:18.386Z,914.3
2019-01-30T00:38:18.278Z,914.2
2019-01-30T00:39:18.163Z,914.2
2019-01-30T00:40:18.056Z,913.2
2019-01-30T00:41:17.953Z,914
2019-01-30T00:42:17.851Z,913.9
2019-01-30T00:43:17.743Z,914.1
2019-01-30T00:44:17.620Z,914
2019-01-30T00:45:17.949Z,914.1
2019-01-30T00:46:18.290Z,913.9
2019-01-30T00:47:18.171Z,914.1
2019-01-30T00:48:18.059Z,914
2019-01-30T00:49:17.947Z,914
2019-01-30T00:50:17.847Z,914
2019-01-30T00:51:17.746Z,913.9
2019-01-30T00:52:17.637Z,914
2019-01-30T00:53:17.524Z,914
2019-01-30T00:54:17.411Z,914
2019-01-30T00:55:17.733Z,913.8
2019-01-30T00:56:17.625Z,913.9
2019-01-30T00:57:17.613Z,913.9
2019-01-30T00:58:17.529Z,913.9
2019-01-30T00:59:17.427Z,913.9
2019-01-30T01:00:17.369Z,913.8
2019-01-30T01:01:17.280Z,913.9
2019-01-30T01:02:17.159Z,913.7
2019-01-30T01:03:17.046Z,913.8
2019-01-30T01:04:16.947Z,913.8
2019-01-30T01:05:17.247Z,913.8
2019-01-30T01:06:17.123Z,913.8
2019-01-30T01:07:17.009Z,913.7
2019-01-30T01:08:16.894Z,913.7
2019-01-30T01:09:16.792Z,913.8
2019-01-30T01:10:16.693Z,913.7
2019-01-30T01:11:16.587Z,913.8
2019-01-30T01:12:16.466Z,913.8
2019-01-30T01:13:16.371Z,913.8
2019-01-30T01:14:16.312Z,913.7
2019-01-30T01:15:16.625Z,913.8
2019-01-30T01:16:16.596Z,913.8
2019-01-30T01:17:16.504Z,913.7
2019-01-30T01:18:16.388Z,913.8
2019-01-30T01:19:16.331Z,913.7
2019-01-30T01:20:16.226Z,913.7
2019-01-30T01:21:16.226Z,913.8
2019-01-30T01:22:16.180Z,913.7
2019-01-30T01:23:16.068Z,913.6
2019-01-30T01:24:15.964Z,913.8
2019-01-30T01:25:16.280Z,913.7
2019-01-30T01:26:16.258Z,913.8
2019-01-30T01:27:16.158Z,913.7
2019-01-30T01:28:16.033Z,913.7
2019-01-30T01:29:15.912Z,913.5
2019-01-30T01:30:26.490Z,913.7
2019-01-30T01:31:26.393Z,913.7
2019-01-30T01:32:26.284Z,913.8
2019-01-30T01:33:26.168Z,913.7
2019-01-30T01:34:26.040Z,913.7
2019-01-30T01:35:26.377Z,913.7
2019-01-30T01:36:26.276Z,913.6
2019-01-30T01:37:26.354Z,913.7
2019-01-30T01:38:26.243Z,913.6
2019-01-30T01:39:26.150Z,913.6
2019-01-30T01:40:26.133Z,912.9
2019-01-30T01:41:26.035Z,913
2019-01-30T01:42:25.918Z,913.4
2019-01-30T01:43:25.816Z,913.7
2019-01-30T01:44:25.716Z,913.6
2019-01-30T01:45:26.104Z,913.6
2019-01-30T01:46:26.041Z,913.6
2019-01-30T01:47:25.945Z,913.6
2019-01-30T01:48:25.996Z,913.6
2019-01-30T01:49:25.943Z,913.6
2019-01-30T01:50:25.834Z,913.6
2019-01-30T01:51:25.856Z,913.6
2019-01-30T01:52:25.750Z,913.5
2019-01-30T01:53:25.641Z,913.5
2019-01-30T01:54:25.555Z,913.4
2019-01-30T01:55:25.856Z,913.4
2019-01-30T01:56:25.728Z,913.4
2019-01-30T01:57:25.834Z,911.8
2019-01-30T01:58:25.712Z,913.4
2019-01-30T01:59:25.616Z,913.4
2019-01-30T02:00:36.522Z,913.4
2019-01-30T02:01:36.417Z,913.2
2019-01-30T02:02:36.333Z,913.4
2019-01-30T02:03:36.224Z,913.2
2019-01-30T02:04:36.102Z,913.2
2019-01-30T02:05:36.400Z,913.3
2019-01-30T02:06:36.293Z,913.4
2019-01-30T02:07:36.222Z,913.2
2019-01-30T02:08:36.118Z,913.4
2019-01-30T02:09:36.012Z,913.3
2019-01-30T02:10:36.655Z,913.2
2019-01-30T02:11:36.550Z,913.3
2019-01-30T02:12:36.436Z,913.3
2019-01-30T02:13:36.344Z,913.3
2019-01-30T02:14:36.243Z,913.2
2019-01-30T02:15:36.554Z,913.3
2019-01-30T02:16:36.442Z,913.3
2019-01-30T02:17:36.332Z,913.4
2019-01-30T02:18:36.318Z,913.2
2019-01-30T02:19:36.231Z,913.3
2019-01-30T02:20:36.140Z,913.3
2019-01-30T02:21:36.023Z,913.1
2019-01-30T02:22:35.910Z,913.2
2019-01-30T02:23:35.832Z,913.1
2019-01-30T02:24:35.732Z,913.1
2019-01-30T02:25:36.148Z,913.1
2019-01-30T02:26:36.150Z,913.1
2019-01-30T02:27:36.040Z,913.2
2019-01-30T02:28:35.924Z,913.2
2019-01-30T02:29:35.900Z,913.1
2019-01-30T02:30:48.552Z,913.1
2019-01-30T02:31:48.594Z,912.2
2019-01-30T02:32:48.507Z,913.1
2019-01-30T02:33:48.406Z,913.1
2019-01-30T02:34:48.418Z,913
2019-01-30T02:35:48.826Z,913
2019-01-30T02:36:48.938Z,913
2019-01-30T02:37:48.836Z,913
2019-01-30T02:38:48.734Z,911.3
2019-01-30T02:39:48.626Z,912.7
2019-01-30T02:40:48.579Z,913
2019-01-30T02:41:48.488Z,912.9
2019-01-30T02:42:48.410Z,913
2019-01-30T02:43:48.311Z,913
2019-01-30T02:44:48.300Z,913
2019-01-30T02:45:48.640Z,912.9
2019-01-30T02:46:48.543Z,912.9
2019-01-30T02:47:48.428Z,912.9
2019-01-30T02:48:48.327Z,912.9
2019-01-30T02:49:48.219Z,912.9
2019-01-30T02:50:48.215Z,913
2019-01-30T02:51:48.156Z,912.8
2019-01-30T02:52:48.059Z,912.8
2019-01-30T02:53:47.960Z,912.9
2019-01-30T02:54:47.852Z,912.8
2019-01-30T02:55:48.308Z,912.8
2019-01-30T02:56:48.220Z,912.7
2019-01-30T02:57:48.097Z,912.8
2019-01-30T02:58:48.014Z,912.8
2019-01-30T02:59:47.930Z,912.8
2019-01-30T03:01:00.343Z,912.7
2019-01-30T03:02:00.243Z,912.5
2019-01-30T03:03:00.146Z,912.6
2019-01-30T03:04:00.060Z,912.8
2019-01-30T03:04:59.953Z,912.6
2019-01-30T03:06:00.280Z,912.7
2019-01-30T03:07:00.239Z,912.7
2019-01-30T03:08:00.175Z,912.5
2019-01-30T03:09:00.110Z,912.7
2019-01-30T03:10:00.017Z,912.7
2019-01-30T03:10:59.998Z,912.5
2019-01-30T03:11:59.877Z,912.6
2019-01-30T03:12:59.785Z,912.6
2019-01-30T03:13:59.686Z,912.7
2019-01-30T03:14:59.595Z,912.7
2019-01-30T03:15:59.950Z,912.7
2019-01-30T03:16:59.828Z,912.5
2019-01-30T03:17:59.950Z,912.6
2019-01-30T03:18:59.867Z,912.6
2019-01-30T03:19:59.830Z,912.6
2019-01-30T03:20:59.717Z,912.5
2019-01-30T03:21:59.695Z,912.6
2019-01-30T03:22:59.608Z,912.6
2019-01-30T03:23:59.574Z,911
2019-01-30T03:24:59.481Z,912.6
2019-01-30T03:25:59.806Z,912.6
2019-01-30T03:26:59.696Z,912.5
2019-01-30T03:27:59.638Z,912.5
2019-01-30T03:28:59.559Z,912.5
2019-01-30T03:29:59.460Z,912.5
2019-01-30T03:31:20.128Z,912.5
2019-01-30T03:32:20.109Z,912.4
2019-01-30T03:33:20.117Z,912.4
2019-01-30T03:34:20.010Z,912.3
2019-01-30T03:35:19.959Z,912.5
2019-01-30T03:36:20.286Z,912.4
2019-01-30T03:37:20.178Z,912.3
2019-01-30T03:38:20.063Z,912.5
2019-01-30T03:39:19.973Z,912.5
2019-01-30T03:40:20.006Z,912.5
2019-01-30T03:41:19.908Z,912.5
2019-01-30T03:42:19.811Z,912.5
2019-01-30T03:43:19.698Z,912.6
2019-01-30T03:44:19.591Z,912.6
2019-01-30T03:45:19.474Z,912.5
2019-01-30T03:46:19.832Z,912.5
2019-01-30T03:47:19.736Z,912.5
2019-01-30T03:48:19.658Z,912.5
2019-01-30T03:49:19.633Z,912.4
2019-01-30T03:50:19.548Z,912.4
2019-01-30T03:51:19.470Z,912.4
2019-01-30T03:52:19.359Z,912.3
2019-01-30T03:53:19.433Z,912.4
2019-01-30T03:54:19.331Z,912.3
2019-01-30T03:55:19.230Z,912.3
2019-01-30T03:56:19.685Z,912.4
2019-01-30T03:57:19.588Z,912.4
2019-01-30T03:58:19.465Z,912.4
2019-01-30T03:59:19.382Z,912.3
2019-01-30T04:00:19.275Z,912.4
2019-01-30T04:01:27.774Z,912.2
2019-01-30T04:02:27.665Z,912.2
2019-01-30T04:03:27.570Z,912.2
2019-01-30T04:04:27.559Z,912.4
2019-01-30T04:05:27.454Z,912.3
2019-01-30T04:06:27.775Z,912.3
2019-01-30T04:07:27.715Z,910.6
2019-01-30T04:08:27.595Z,912.4
2019-01-30T04:09:27.539Z,912.4
2019-01-30T04:10:27.440Z,912.4
2019-01-30T04:11:27.341Z,911.8
2019-01-30T04:12:27.251Z,912.3
2019-01-30T04:13:27.142Z,911.6
2019-01-30T04:14:27.052Z,911.7
2019-01-30T04:15:26.945Z,912.1
2019-01-30T04:16:27.428Z,912.3
2019-01-30T04:17:27.335Z,912.2
2019-01-30T04:18:27.350Z,912.2
2019-01-30T04:19:27.255Z,912.3
2019-01-30T04:20:27.175Z,912.2
2019-01-30T04:21:27.103Z,912.4
2019-01-30T04:22:26.989Z,912.3
2019-01-30T04:23:26.876Z,912.2
2019-01-30T04:24:26.793Z,912.1
2019-01-30T04:25:26.914Z,911.7
2019-01-30T04:26:27.250Z,912.3
2019-01-30T04:27:27.163Z,912.3
2019-01-30T04:28:27.073Z,912.3
2019-01-30T04:29:26.964Z,912.2
2019-01-30T04:30:26.872Z,912.2
2019-01-30T04:31:38.879Z,912.2
2019-01-30T04:32:38.755Z,912.2
2019-01-30T04:33:38.696Z,912.2
2019-01-30T04:34:38.585Z,912.2
2019-01-30T04:35:38.469Z,912.2
2019-01-30T04:36:38.908Z,912.2
2019-01-30T04:37:38.826Z,912.2
2019-01-30T04:38:38.713Z,912.2
2019-01-30T04:39:38.617Z,912.1
2019-01-30T04:40:38.507Z,912.1
2019-01-30T04:41:38.421Z,912.1
2019-01-30T04:42:38.447Z,912.2
2019-01-30T04:43:38.355Z,912.2
2019-01-30T04:44:38.353Z,912
2019-01-30T04:45:38.251Z,912.2
2019-01-30T04:46:38.563Z,912.1
2019-01-30T04:47:38.463Z,912.1
2019-01-30T04:48:38.373Z,912.1
2019-01-30T04:49:38.391Z,912.2
2019-01-30T04:50:38.377Z,912.1
2019-01-30T04:51:38.265Z,912
2019-01-30T04:52:38.178Z,912.1
2019-01-30T04:53:38.069Z,912.1
2019-01-30T04:54:37.952Z,911.8
2019-01-30T04:55:37.847Z,911.8
2019-01-30T04:56:38.142Z,912
2019-01-30T04:57:38.021Z,912
2019-01-30T04:58:37.920Z,912
2019-01-30T04:59:37.789Z,910.4
2019-01-30T05:00:37.715Z,912
2019-01-30T05:01:49.100Z,911.9
2019-01-30T05:02:49.389Z,912
2019-01-30T05:03:49.402Z,911.9
2019-01-30T05:04:49.329Z,911.9
2019-01-30T05:05:49.239Z,911.9
2019-01-30T05:06:49.568Z,911.9
2019-01-30T05:07:49.499Z,911.9
2019-01-30T05:08:49.398Z,911.9
2019-01-30T05:09:49.281Z,911.9
2019-01-30T05:10:49.223Z,911.9
2019-01-30T05:11:49.129Z,911.8
2019-01-30T05:12:49.060Z,912
2019-01-30T05:13:48.973Z,911.9
2019-01-30T05:14:48.885Z,912
2019-01-30T05:15:48.785Z,911.9
2019-01-30T05:16:49.125Z,912
2019-01-30T05:17:49.036Z,912
2019-01-30T05:18:48.921Z,912
2019-01-30T05:19:48.813Z,912
2019-01-30T05:20:48.703Z,912
2019-01-30T05:21:48.620Z,912
2019-01-30T05:22:48.547Z,912
2019-01-30T05:23:48.558Z,912
2019-01-30T05:24:48.511Z,912
2019-01-30T05:25:48.400Z,911.9
2019-01-30T05:26:48.701Z,911.9
2019-01-30T05:27:48.625Z,911.8
2019-01-30T05:28:48.527Z,910.2
2019-01-30T05:29:48.419Z,911.9
2019-01-30T05:30:48.308Z,912
2019-01-30T05:31:48.358Z,912
2019-01-30T05:32:48.273Z,912
2019-01-30T05:33:48.169Z,911.9
2019-01-30T05:34:48.089Z,912
2019-01-30T05:35:47.975Z,912
2019-01-30T05:36:48.329Z,912
2019-01-30T05:37:51.939Z,911.9
2019-01-30T05:38:51.835Z,912
2019-01-30T05:39:51.734Z,912
2019-01-30T05:40:51.635Z,912
2019-01-30T05:41:51.520Z,911.9
2019-01-30T05:42:51.464Z,911.9
2019-01-30T05:43:51.375Z,911.7
2019-01-30T05:44:51.257Z,911.9
2019-01-30T05:45:51.145Z,911.9
2019-01-30T05:46:51.469Z,911.8
2019-01-30T05:47:51.377Z,912
2019-01-30T05:48:51.307Z,911.7
2019-01-30T05:49:51.210Z,911.9
2019-01-30T05:50:51.116Z,911.7
2019-01-30T05:51:51.015Z,911.9
2019-01-30T05:52:50.935Z,911.9
2019-01-30T05:53:50.877Z,911.9
2019-01-30T05:54:50.791Z,911.9
2019-01-30T05:55:50.671Z,911.8
2019-01-30T05:56:51.223Z,911.8
2019-01-30T05:57:51.151Z,911.8
2019-01-30T05:58:51.078Z,911.8
2019-01-30T05:59:51.001Z,911.9
2019-01-30T06:00:50.927Z,911.8
2019-01-30T06:01:50.847Z,911.9
2019-01-30T06:02:50.741Z,911.9
2019-01-30T06:03:50.635Z,911.8
2019-01-30T06:04:50.551Z,911.8
2019-01-30T06:05:50.487Z,911.8
2019-01-30T06:06:50.813Z,911.7
2019-01-30T06:07:50.767Z,911.8
2019-01-30T06:08:50.649Z,911.8
2019-01-30T06:09:50.546Z,911.8
2019-01-30T06:10:50.475Z,911.8
2019-01-30T06:11:50.377Z,911.9
2019-01-30T06:12:50.271Z,911.8
2019-01-30T06:13:50.161Z,911.8
2019-01-30T06:14:50.080Z,911.7
2019-01-30T06:15:50.011Z,911.7
2019-01-30T06:16:50.340Z,911.8
2019-01-30T06:17:50.232Z,911.8
2019-01-30T06:18:50.117Z,911.8
2019-01-30T06:19:50.001Z,910.5
2019-01-30T06:20:49.892Z,911.9
2019-01-30T06:21:49.793Z,911.8
2019-01-30T06:22:49.684Z,911.9
2019-01-30T06:23:49.606Z,911.8
2019-01-30T06:24:49.517Z,911.7
2019-01-30T06:25:49.543Z,911.8
2019-01-30T06:26:49.884Z,912
2019-01-30T06:27:49.800Z,911.9
2019-01-30T06:28:49.674Z,912
2019-01-30T06:29:49.569Z,912
2019-01-30T06:30:49.455Z,911.9
2019-01-30T06:31:49.343Z,911.8
2019-01-30T06:32:49.238Z,911.9
2019-01-30T06:33:49.118Z,911.8
2019-01-30T06:34:49.139Z,912
2019-01-30T06:35:49.045Z,911.9
2019-01-30T06:36:49.396Z,911.8
2019-01-30T06:37:49.283Z,911.8
2019-01-30T06:38:49.165Z,912
2019-01-30T06:39:49.037Z,912
2019-01-30T06:40:48.945Z,912
2019-01-30T06:41:48.866Z,911.9
2019-01-30T06:42:48.756Z,912
2019-01-30T06:43:48.639Z,912
2019-01-30T06:44:48.527Z,912
2019-01-30T06:45:48.455Z,912
2019-01-30T06:46:48.843Z,912
2019-01-30T06:47:48.771Z,911.9
2019-01-30T06:48:48.655Z,911.8
2019-01-30T06:49:48.550Z,911.9
2019-01-30T06:50:48.432Z,911.9
2019-01-30T06:51:48.348Z,911.8
2019-01-30T06:52:48.223Z,911.9
2019-01-30T06:53:48.097Z,912
2019-01-30T06:54:47.983Z,911.9
2019-01-30T06:55:47.875Z,911.8
2019-01-30T06:56:48.222Z,911.9
2019-01-30T06:57:48.135Z,912
2019-01-30T06:58:48.049Z,912
2019-01-30T06:59:48.051Z,911.9
2019-01-30T07:00:47.929Z,912
2019-01-30T07:01:47.833Z,912
2019-01-30T07:02:47.726Z,912
2019-01-30T07:03:47.627Z,912
2019-01-30T07:04:47.538Z,912
2019-01-30T07:05:47.425Z,912
2019-01-30T07:06:47.811Z,912
2019-01-30T07:07:47.790Z,912.1
2019-01-30T07:08:47.689Z,912.1
2019-01-30T07:09:47.588Z,912.1
2019-01-30T07:10:47.478Z,912.1
2019-01-30T07:11:47.386Z,912.1
2019-01-30T07:12:47.386Z,912.1
2019-01-30T07:13:47.366Z,912
2019-01-30T07:14:47.252Z,912
2019-01-30T07:15:47.208Z,912.1
2019-01-30T07:16:47.592Z,911.9
2019-01-30T07:17:47.551Z,912
2019-01-30T07:18:47.441Z,912.1
2019-01-30T07:19:47.328Z,912.1
2019-01-30T07:20:47.230Z,912.2
2019-01-30T07:21:47.131Z,912
2019-01-30T07:22:47.050Z,912.1
2019-01-30T07:23:46.944Z,912.2
2019-01-30T07:24:46.894Z,912.2
2019-01-30T07:25:46.798Z,912.1
2019-01-30T07:26:47.194Z,912.1
2019-01-30T07:27:47.123Z,912
2019-01-30T07:28:47.027Z,912.1
2019-01-30T07:29:46.909Z,912.1
2019-01-30T07:30:46.808Z,912.1
2019-01-30T07:31:46.688Z,912.2
2019-01-30T07:32:46.570Z,912
2019-01-30T07:33:46.480Z,912
2019-01-30T07:34:46.364Z,912.2
2019-01-30T07:35:46.250Z,912.2
2019-01-30T07:36:46.552Z,912.2
2019-01-30T07:37:46.432Z,912.2
2019-01-30T07:38:46.421Z,911.7
2019-01-30T07:39:46.411Z,912.1
2019-01-30T07:40:46.308Z,912.3
2019-01-30T07:41:46.224Z,912.3
2019-01-30T07:42:46.148Z,912.3
2019-01-30T07:43:46.216Z,912.3
2019-01-30T07:44:51.962Z,912.3
2019-01-30T07:45:51.840Z,912.4
2019-01-30T07:46:52.155Z,912.4
2019-01-30T07:47:52.040Z,912.3
2019-01-30T07:48:51.956Z,912.3
2019-01-30T07:49:51.846Z,912.4
2019-01-30T07:50:51.743Z,912.4
2019-01-30T07:51:51.646Z,912.4
2019-01-30T07:52:51.578Z,912.4
2019-01-30T07:53:51.455Z,912.4
2019-01-30T07:54:51.398Z,912.4
2019-01-30T07:55:51.278Z,912.4
2019-01-30T07:56:51.616Z,912.4
2019-01-30T07:57:51.503Z,912.5
2019-01-30T07:58:51.398Z,912.5
2019-01-30T07:59:51.301Z,912.4
2019-01-30T08:00:51.220Z,912.6
2019-01-30T08:01:51.126Z,912.5
2019-01-30T08:02:54.538Z,912.6
2019-01-30T08:03:54.443Z,912.5
2019-01-30T08:04:54.316Z,912.5
2019-01-30T08:05:54.218Z,912.6
2019-01-30T08:06:54.528Z,912.6
2019-01-30T08:07:54.414Z,912.7
2019-01-30T08:08:54.325Z,912.6
2019-01-30T08:09:54.218Z,912.7
2019-01-30T08:10:54.131Z,912.7
2019-01-30T08:11:54.035Z,912.6
2019-01-30T08:12:53.910Z,912.5
2019-01-30T08:13:53.808Z,912.5
2019-01-30T08:14:53.732Z,911.4
2019-01-30T08:15:53.616Z,912.6
2019-01-30T08:16:53.947Z,912.8
2019-01-30T08:17:53.844Z,912.6
2019-01-30T08:18:53.756Z,912.7
2019-01-30T08:19:53.647Z,912.6
2019-01-30T08:20:53.613Z,912.7
2019-01-30T08:21:53.561Z,912.7
2019-01-30T08:22:54.065Z,912.8
2019-01-30T08:23:54.516Z,912.7
2019-01-30T08:24:55.927Z,912.7
2019-01-30T08:25:56.494Z,912.8
2019-01-30T08:26:58.518Z,911.5
2019-01-30T08:28:00.050Z,912.7
2019-01-30T08:29:01.407Z,912.9
2019-01-30T08:30:03.208Z,912.9
2019-01-30T08:31:04.839Z,912.8
2019-01-30T08:32:06.949Z,912.8
2019-01-30T08:33:08.101Z,912.8
2019-01-30T08:34:08.103Z,912.2
2019-01-30T08:35:07.982Z,912.7
2019-01-30T08:36:07.904Z,913
2019-01-30T08:37:08.494Z,913
2019-01-30T08:38:08.386Z,913
2019-01-30T08:39:08.285Z,913
2019-01-30T08:40:08.188Z,913
2019-01-30T08:41:08.091Z,913
2019-01-30T08:42:08.013Z,913
2019-01-30T08:43:07.944Z,912.1
2019-01-30T08:44:07.928Z,913.1
2019-01-30T08:45:07.813Z,913.1
2019-01-30T08:46:07.704Z,913.2
2019-01-30T08:47:08.256Z,913.1
2019-01-30T08:48:08.272Z,913
2019-01-30T08:49:08.169Z,913.2
2019-01-30T08:50:08.062Z,913.2
2019-01-30T08:51:07.977Z,913.3
2019-01-30T08:52:07.879Z,913.2
2019-01-30T08:53:07.842Z,913.2
2019-01-30T08:54:07.753Z,913.2
2019-01-30T08:55:07.670Z,913.2
2019-01-30T08:56:07.566Z,913.3
2019-01-30T08:57:23.391Z,913.2
2019-01-30T08:58:23.307Z,913.4
2019-01-30T08:59:23.208Z,913.3
2019-01-30T09:00:23.110Z,913.4
2019-01-30T09:01:23.015Z,913.5
2019-01-30T09:02:22.921Z,913.4
2019-01-30T09:03:22.841Z,913.5
2019-01-30T09:04:22.741Z,913.5
2019-01-30T09:05:22.631Z,913.5
2019-01-30T09:06:22.543Z,913.4
2019-01-30T09:07:22.879Z,913.5
2019-01-30T09:08:22.885Z,913.6
2019-01-30T09:09:22.810Z,913.6
2019-01-30T09:10:22.705Z,913.7
2019-01-30T09:11:22.623Z,913.6
2019-01-30T09:12:22.548Z,913.7
2019-01-30T09:13:22.473Z,913.5
2019-01-30T09:14:22.350Z,913.7
2019-01-30T09:15:22.276Z,913.7
2019-01-30T09:16:22.167Z,913.7
2019-01-30T09:17:22.487Z,913.6
2019-01-30T09:18:22.388Z,913.8
2019-01-30T09:19:22.279Z,913.8
2019-01-30T09:20:22.169Z,913.8
2019-01-30T09:21:22.101Z,913.8
2019-01-30T09:22:21.994Z,913.8
2019-01-30T09:23:21.907Z,913.8
2019-01-30T09:24:21.835Z,913.6
2019-01-30T09:25:21.738Z,913.8
2019-01-30T09:26:21.665Z,913.9
2019-01-30T09:27:24.624Z,913.5
2019-01-30T09:28:24.515Z,913.9
2019-01-30T09:29:24.421Z,913.9
2019-01-30T09:30:24.312Z,914.1
2019-01-30T09:31:24.219Z,914.1
2019-01-30T09:32:24.105Z,914.3
2019-01-30T09:33:27.114Z,914.4
2019-01-30T09:34:27.135Z,913.9
2019-01-30T09:35:27.051Z,914.5
2019-01-30T09:36:27.085Z,914.6
2019-01-30T09:37:28.248Z,914.7
2019-01-30T09:38:28.169Z,914.5
2019-01-30T09:39:28.184Z,914.7
2019-01-30T09:40:28.118Z,914.7
2019-01-30T09:41:28.046Z,914.8
2019-01-30T09:42:28.150Z,914.7
2019-01-30T09:43:28.298Z,914.7
2019-01-30T09:44:28.318Z,914.8
2019-01-30T09:45:28.293Z,914.9
2019-01-30T09:46:28.252Z,914.9
2019-01-30T09:47:28.684Z,914.8
2019-01-30T09:48:28.663Z,914.9
2019-01-30T09:49:28.722Z,915
2019-01-30T09:50:28.809Z,915
2019-01-30T09:51:28.698Z,915
2019-01-30T09:52:28.651Z,915
2019-01-30T09:53:28.704Z,915
2019-01-30T09:54:28.657Z,915.1
2019-01-30T09:55:28.588Z,915
2019-01-30T09:56:28.628Z,915.1
2019-01-30T09:57:28.999Z,915.2
2019-01-30T09:58:28.888Z,915.2
2019-01-30T09:59:28.793Z,915.2
2019-01-30T10:00:28.686Z,915.2
2019-01-30T10:01:28.575Z,915.3
2019-01-30T10:02:28.575Z,915.2
2019-01-30T10:03:37.509Z,915.2
2019-01-30T10:04:37.409Z,915.2
2019-01-30T10:05:37.322Z,915.2
2019-01-30T10:06:37.229Z,915.2
2019-01-30T10:07:37.573Z,915
2019-01-30T10:08:37.481Z,915.1
2019-01-30T10:09:38.680Z,915.2
2019-01-30T10:10:38.558Z,915.2
2019-01-30T10:11:38.441Z,914
2019-01-30T10:12:38.337Z,915.3
2019-01-30T10:13:38.455Z,915.2
2019-01-30T10:14:38.341Z,915.2
2019-01-30T10:15:38.346Z,915.2
2019-01-30T10:16:38.246Z,915.1
2019-01-30T10:17:38.566Z,915.1
2019-01-30T10:18:38.489Z,915.3
2019-01-30T10:19:42.615Z,915.3
2019-01-30T10:20:42.516Z,915.3
2019-01-30T10:21:42.407Z,915.2
2019-01-30T10:22:42.303Z,915.3
2019-01-30T10:23:42.233Z,915.2
2019-01-30T10:24:42.133Z,915.4
2019-01-30T10:25:42.027Z,915.3
2019-01-30T10:26:41.943Z,915.4
2019-01-30T10:27:42.277Z,915.4
2019-01-30T10:28:42.158Z,915.3
2019-01-30T10:29:42.075Z,915.4
2019-01-30T10:30:41.973Z,915.4
2019-01-30T10:31:41.880Z,915.4
2019-01-30T10:32:41.792Z,915.5
2019-01-30T10:33:47.662Z,915.5
2019-01-30T10:34:47.583Z,915.3
2019-01-30T10:35:47.515Z,915.5
2019-01-30T10:36:47.415Z,915.5
2019-01-30T10:37:47.746Z,915.5
2019-01-30T10:38:47.692Z,915.5
2019-01-30T10:39:47.602Z,915.4
2019-01-30T10:40:47.576Z,915.4
2019-01-30T10:41:47.468Z,915.4
2019-01-30T10:42:47.360Z,915.4
2019-01-30T10:43:47.268Z,915.4
2019-01-30T10:44:47.131Z,915.3
2019-01-30T10:45:47.058Z,914.1
2019-01-30T10:46:46.951Z,915.4
2019-01-30T10:47:47.300Z,915.4
2019-01-30T10:48:47.203Z,915.4
2019-01-30T10:49:47.151Z,915.5
2019-01-30T10:50:47.048Z,915.5
2019-01-30T10:51:46.961Z,915.5
2019-01-30T10:52:46.871Z,915.5
2019-01-30T10:53:49.037Z,915.5
2019-01-30T10:54:48.917Z,915.4
2019-01-30T10:55:48.938Z,915.5
2019-01-30T10:56:48.943Z,915.5
2019-01-30T10:57:49.287Z,915.4
2019-01-30T10:58:49.178Z,915.4
2019-01-30T10:59:49.075Z,915.5
2019-01-30T11:00:49.014Z,915.5
2019-01-30T11:01:48.909Z,915.5
2019-01-30T11:02:48.793Z,915.3
2019-01-30T11:03:58.415Z,915.5
2019-01-30T11:04:58.308Z,915.5
2019-01-30T11:05:58.211Z,915.5
2019-01-30T11:06:58.125Z,915.4
2019-01-30T11:07:58.481Z,915.4
2019-01-30T11:08:58.373Z,915.3
2019-01-30T11:09:58.279Z,915.5
2019-01-30T11:11:09.115Z,915.3
2019-01-30T11:12:09.011Z,915.5
2019-01-30T11:13:08.929Z,915.2
2019-01-30T11:14:08.823Z,915.5
2019-01-30T11:15:08.707Z,915.5
2019-01-30T11:16:08.643Z,915.5
2019-01-30T11:17:09.588Z,915.4
2019-01-30T11:18:10.011Z,915.6
2019-01-30T11:19:09.919Z,914.9
2019-01-30T11:20:09.812Z,915.5
2019-01-30T11:21:09.739Z,915.5
2019-01-30T11:22:09.627Z,915.5
2019-01-30T11:23:09.502Z,915.5
2019-01-30T11:24:09.391Z,915.5
2019-01-30T11:25:09.282Z,915.5
2019-01-30T11:26:09.318Z,915.5
2019-01-30T11:27:09.233Z,915.4
2019-01-30T11:28:09.549Z,915.3
2019-01-30T11:29:09.447Z,915.5
2019-01-30T11:30:09.333Z,915.5
2019-01-30T11:31:09.357Z,915.3
2019-01-30T11:32:09.279Z,914.2
2019-01-30T11:33:09.273Z,915.4
2019-01-30T11:34:09.174Z,915.5
2019-01-30T11:35:09.059Z,915.5
2019-01-30T11:36:08.939Z,915.5
2019-01-30T11:37:08.867Z,915.5
2019-01-30T11:38:10.041Z,915.5
2019-01-30T11:39:09.945Z,915.5
2019-01-30T11:40:09.855Z,915.4
2019-01-30T11:41:09.749Z,915.3
2019-01-30T11:42:09.659Z,915.5
2019-01-30T11:43:09.536Z,915.5
2019-01-30T11:44:09.435Z,915.5
2019-01-30T11:45:09.369Z,915.6
2019-01-30T11:46:09.255Z,915.4
2019-01-30T11:47:09.171Z,915.6
2019-01-30T11:48:09.519Z,915.5
2019-01-30T11:49:09.411Z,915.5
2019-01-30T11:50:09.291Z,915.4
2019-01-30T11:51:09.199Z,915.5
2019-01-30T11:52:09.103Z,915.4
2019-01-30T11:53:09.036Z,915.4
2019-01-30T11:54:08.957Z,915.5
2019-01-30T11:55:08.839Z,915.5
2019-01-30T11:56:08.756Z,915.5
2019-01-30T11:57:08.675Z,915.6
2019-01-30T11:58:09.099Z,915.5
2019-01-30T11:59:09.003Z,915.5
2019-01-30T12:00:08.893Z,915.6
2019-01-30T12:01:08.799Z,915.6
2019-01-30T12:02:08.709Z,915.6
2019-01-30T12:03:08.625Z,915.6
2019-01-30T12:04:18.927Z,915.6
2019-01-30T12:05:18.827Z,915.5
2019-01-30T12:06:18.715Z,915.5
2019-01-30T12:07:18.629Z,915.5
2019-01-30T12:08:18.971Z,915.5
2019-01-30T12:09:18.871Z,915.5
2019-01-30T12:10:18.796Z,915.6
2019-01-30T12:11:18.763Z,915.6
2019-01-30T12:12:18.641Z,915.5
2019-01-30T12:13:18.531Z,915.5
2019-01-30T12:14:18.421Z,915.6
2019-01-30T12:15:18.299Z,915.5
2019-01-30T12:16:18.223Z,915.5
2019-01-30T12:17:18.137Z,915.5
2019-01-30T12:18:18.524Z,915.6
2019-01-30T12:19:18.437Z,915.5
2019-01-30T12:20:18.334Z,915.6
2019-01-30T12:21:18.217Z,915.5
2019-01-30T12:22:18.099Z,915.5
2019-01-30T12:23:17.993Z,915.6
2019-01-30T12:24:17.934Z,915.6
2019-01-30T12:25:17.937Z,914.2
2019-01-30T12:26:17.827Z,915.5
2019-01-30T12:27:17.719Z,915.5
2019-01-30T12:28:21.319Z,915.4
2019-01-30T12:29:21.295Z,915.6
2019-01-30T12:30:21.194Z,915.5
2019-01-30T12:31:21.083Z,915.5
2019-01-30T12:32:20.974Z,915.6
2019-01-30T12:33:20.920Z,915.6
2019-01-30T12:34:29.387Z,915.6
2019-01-30T12:35:29.278Z,915.6
2019-01-30T12:36:29.194Z,915.6
2019-01-30T12:37:29.081Z,915.6
2019-01-30T12:38:29.555Z,915.6
2019-01-30T12:39:29.474Z,915.6
2019-01-30T12:40:29.387Z,915.4
2019-01-30T12:41:29.263Z,915.6
2019-01-30T12:42:29.144Z,915.6
2019-01-30T12:43:29.044Z,915.6
2019-01-30T12:44:28.942Z,915.6
2019-01-30T12:45:28.860Z,915.6
2019-01-30T12:46:28.741Z,915.6
2019-01-30T12:47:28.644Z,915.5
2019-01-30T12:48:28.966Z,915.6
2019-01-30T12:49:28.870Z,915.6
2019-01-30T12:50:28.791Z,915.6
2019-01-30T12:51:28.704Z,915.6
2019-01-30T12:52:28.605Z,915.6
2019-01-30T12:53:28.503Z,915.6
2019-01-30T12:54:28.403Z,915.6
2019-01-30T12:55:30.457Z,915.6
2019-01-30T12:56:30.382Z,915.6
2019-01-30T12:57:30.279Z,915.5
2019-01-30T12:58:30.596Z,915.6
2019-01-30T12:59:30.562Z,915.6
2019-01-30T13:00:30.444Z,915.4
2019-01-30T13:01:31.885Z,915.5